createdAt,value
2018-09-17T00:00:34.172Z,8.33
2018-09-17T00:03:02.580Z,8.37
2018-09-17T00:05:31.030Z,8.27
2018-09-17T00:07:59.514Z,8.60
2018-09-17T00:10:27.918Z,8.20
2018-09-17T00:12:56.365Z,8.47
2018-09-17T00:15:24.723Z,8.80
2018-09-17T00:17:53.145Z,8.80
2018-09-17T00:20:21.473Z,8.90
2018-09-17T00:22:50.100Z,8.43
2018-09-17T00:25:18.465Z,8.43
2018-09-17T00:27:46.804Z,8.47
2018-09-17T00:30:15.183Z,8.13
2018-09-17T00:32:43.587Z,9.00
2018-09-17T00:35:11.912Z,8.40
2018-09-17T00:37:40.484Z,8.33
2018-09-17T00:40:08.863Z,8.00
2018-09-17T00:42:37.200Z,8.07
2018-09-17T00:45:05.666Z,8.37
2018-09-17T00:47:34.127Z,8.43
2018-09-17T00:50:02.566Z,8.13
2018-09-17T00:52:31.462Z,8.57
2018-09-17T00:54:59.838Z,9.00
2018-09-17T00:57:28.234Z,8.33
2018-09-17T00:59:56.649Z,8.63
2018-09-17T01:02:24.974Z,8.17
2018-09-17T01:04:53.310Z,8.93
2018-09-17T01:07:21.942Z,9.50
2018-09-17T01:09:50.280Z,9.33
2018-09-17T01:12:18.630Z,9.70
2018-09-17T01:14:47.807Z,9.07
2018-09-17T01:17:16.181Z,9.07
2018-09-17T01:19:44.514Z,9.37
2018-09-17T01:22:13.000Z,8.40
2018-09-17T01:24:41.409Z,8.10
2018-09-17T01:27:09.806Z,8.00
2018-09-17T01:29:38.176Z,8.10
2018-09-17T01:32:06.536Z,7.67
2018-09-17T01:34:35.024Z,7.47
2018-09-17T01:37:03.401Z,8.17
2018-09-17T01:39:31.733Z,7.93
2018-09-17T01:42:00.164Z,8.30
2018-09-17T01:44:28.586Z,7.93
2018-09-17T01:46:56.928Z,7.70
2018-09-17T01:49:25.312Z,8.60
2018-09-17T01:51:53.724Z,8.27
2018-09-17T01:54:22.068Z,7.87
2018-09-17T01:56:50.530Z,8.07
2018-09-17T01:59:19.255Z,8.07
2018-09-17T02:01:48.583Z,8.43
2018-09-17T02:04:16.919Z,8.80
2018-09-17T02:06:45.483Z,8.37
2018-09-17T02:09:13.843Z,8.77
2018-09-17T02:11:42.201Z,8.20
2018-09-17T02:14:10.593Z,8.17
2018-09-17T02:16:39.001Z,8.13
2018-09-17T02:19:07.334Z,8.50
2018-09-17T02:21:36.564Z,8.50
2018-09-17T02:24:04.977Z,7.87
2018-09-17T02:26:33.368Z,8.90
2018-09-17T02:29:01.915Z,8.13
2018-09-17T02:31:30.255Z,8.10
2018-09-17T02:33:58.692Z,7.93
2018-09-17T02:36:27.070Z,8.20
2018-09-17T02:38:55.499Z,7.87
2018-09-17T02:41:23.917Z,8.47
2018-09-17T02:43:52.318Z,7.87
2018-09-17T02:46:20.670Z,8.20
2018-09-17T02:48:49.105Z,8.10
2018-09-17T02:51:17.825Z,8.20
2018-09-17T02:53:46.307Z,8.17
2018-09-17T02:56:14.627Z,7.93
2018-09-17T02:58:43.263Z,8.77
2018-09-17T03:01:11.773Z,8.60
2018-09-17T03:03:41.341Z,8.00
2018-09-17T03:06:09.719Z,8.23
2018-09-17T03:08:38.099Z,8.00
2018-09-17T03:11:06.665Z,8.40
2018-09-17T03:13:35.135Z,9.00
2018-09-17T03:16:03.573Z,8.33
2018-09-17T03:18:46.129Z,7.90
2018-09-17T03:21:14.462Z,8.00
2018-09-17T03:23:42.874Z,8.00
2018-09-17T03:26:12.328Z,8.10
2018-09-17T03:28:40.816Z,7.97
2018-09-17T03:31:09.157Z,8.00
2018-09-17T03:33:37.615Z,7.97
2018-09-17T03:36:06.300Z,7.30
2018-09-17T03:38:40.247Z,8.47
2018-09-17T03:41:09.706Z,8.17
2018-09-17T03:43:39.326Z,7.90
2018-09-17T03:46:07.854Z,8.40
2018-09-17T03:48:37.125Z,9.23
2018-09-17T03:51:06.422Z,8.77
2018-09-17T03:53:35.131Z,8.77
2018-09-17T03:56:03.550Z,9.10
2018-09-17T03:58:32.279Z,8.67
2018-09-17T04:01:01.618Z,8.83
2018-09-17T04:03:30.019Z,8.30
2018-09-17T04:05:58.429Z,8.10
2018-09-17T04:08:27.539Z,8.77
2018-09-17T04:10:55.950Z,9.03
2018-09-17T04:13:24.394Z,8.50
2018-09-17T04:15:53.003Z,8.20
2018-09-17T04:18:21.381Z,8.27
2018-09-17T04:20:49.709Z,7.47
2018-09-17T04:23:50.088Z,7.43
2018-09-17T04:26:18.488Z,8.17
2018-09-17T04:28:46.820Z,8.17
2018-09-17T04:31:15.206Z,8.83
2018-09-17T04:33:44.137Z,7.87
2018-09-17T04:36:13.270Z,8.33
2018-09-17T04:38:41.768Z,7.97
2018-09-17T04:41:10.176Z,8.13
2018-09-17T04:43:38.509Z,8.20
2018-09-17T04:46:07.092Z,7.67
2018-09-17T04:48:35.523Z,7.70
2018-09-17T04:51:04.112Z,8.00
2018-09-17T04:53:32.528Z,7.77
2018-09-17T04:56:00.874Z,7.90
2018-09-17T04:58:29.216Z,8.33
2018-09-17T05:00:57.608Z,7.53
2018-09-17T05:03:25.982Z,7.70
2018-09-17T05:05:54.354Z,8.27
2018-09-17T05:08:22.795Z,8.30
2018-09-17T05:10:51.241Z,8.20
2018-09-17T05:13:19.715Z,8.20
2018-09-17T05:15:48.129Z,7.63
2018-09-17T05:18:16.471Z,7.83
2018-09-17T05:20:44.845Z,7.60
2018-09-17T05:23:13.353Z,7.60
2018-09-17T05:25:41.699Z,8.63
2018-09-17T05:28:10.028Z,8.40
2018-09-17T05:30:38.478Z,8.03
2018-09-17T05:33:06.815Z,8.37
2018-09-17T05:35:35.228Z,8.40
2018-09-17T05:38:03.640Z,8.90
2018-09-17T05:40:31.952Z,8.33
2018-09-17T05:43:00.372Z,9.27
2018-09-17T05:45:28.786Z,8.60
2018-09-17T05:47:57.144Z,9.97
2018-09-17T05:50:25.550Z,9.70
2018-09-17T05:52:54.017Z,9.83
2018-09-17T05:55:22.621Z,9.47
2018-09-17T05:57:50.962Z,9.70
2018-09-17T06:00:19.725Z,8.73
2018-09-17T06:02:48.163Z,8.53
2018-09-17T06:05:16.581Z,9.40
2018-09-17T06:07:44.973Z,8.53
2018-09-17T06:10:14.859Z,9.63
2018-09-17T06:12:44.652Z,8.03
2018-09-17T06:15:13.368Z,9.50
2018-09-17T06:17:41.804Z,8.17
2018-09-17T06:20:10.188Z,9.30
2018-09-17T06:22:38.671Z,9.10
2018-09-17T06:25:07.096Z,9.67
2018-09-17T06:27:35.568Z,9.27
2018-09-17T06:30:04.050Z,9.30
2018-09-17T06:32:32.440Z,9.37
2018-09-17T06:35:00.828Z,9.90
2018-09-17T06:37:29.357Z,9.47
2018-09-17T06:39:57.696Z,9.73
2018-09-17T06:42:26.152Z,9.03
2018-09-17T06:44:54.570Z,9.23
2018-09-17T06:47:23.012Z,10.47
2018-09-17T06:49:52.576Z,10.17
2018-09-17T06:52:20.966Z,9.80
2018-09-17T06:54:49.304Z,9.67
2018-09-17T06:57:17.649Z,9.20
2018-09-17T06:59:46.026Z,9.80
2018-09-17T07:02:14.496Z,9.57
2018-09-17T07:04:43.011Z,9.17
2018-09-17T07:07:11.560Z,8.40
2018-09-17T07:09:39.883Z,9.57
2018-09-17T07:12:08.234Z,9.37
2018-09-17T07:14:36.644Z,9.97
2018-09-17T07:17:05.214Z,9.90
2018-09-17T07:19:33.555Z,8.67
2018-09-17T07:22:01.989Z,8.37
2018-09-17T07:24:30.343Z,8.43
2018-09-17T07:26:59.352Z,7.70
2018-09-17T07:29:27.989Z,7.90
2018-09-17T07:31:56.388Z,8.00
2018-09-17T07:34:24.725Z,8.30
2018-09-17T07:36:53.099Z,8.50
2018-09-17T07:39:21.506Z,7.63
2018-09-17T07:41:49.886Z,8.10
2018-09-17T07:44:18.247Z,7.30
2018-09-17T07:46:46.668Z,7.10
2018-09-17T07:49:15.037Z,7.77
2018-09-17T07:51:43.408Z,7.37
2018-09-17T07:54:11.767Z,7.47
2018-09-17T07:56:40.180Z,7.50
2018-09-17T07:59:08.732Z,7.17
2018-09-17T08:01:37.068Z,6.60
2018-09-17T08:04:05.463Z,7.30
2018-09-17T08:06:33.937Z,7.10
2018-09-17T08:09:02.293Z,7.27
2018-09-17T08:11:30.632Z,7.10
2018-09-17T08:13:59.164Z,7.30
2018-09-17T08:16:27.592Z,7.40
2018-09-17T08:18:55.940Z,7.57
2018-09-17T08:21:24.452Z,7.23
2018-09-17T08:23:52.849Z,7.03
2018-09-17T08:26:21.227Z,7.20
2018-09-17T08:28:51.032Z,7.57
2018-09-17T08:31:19.459Z,6.83
2018-09-17T08:33:47.787Z,6.93
2018-09-17T08:36:16.292Z,7.30
2018-09-17T08:38:44.635Z,7.30
2018-09-17T08:41:13.095Z,7.27
2018-09-17T08:43:41.526Z,7.10
2018-09-17T08:46:09.876Z,6.90
2018-09-17T08:48:38.211Z,7.07
2018-09-17T08:51:06.781Z,7.53
2018-09-17T08:53:35.124Z,6.87
2018-09-17T08:56:08.864Z,7.20
2018-09-17T08:58:42.604Z,7.57
2018-09-17T09:01:16.288Z,7.63
2018-09-17T09:03:49.927Z,7.57
2018-09-17T09:06:20.506Z,7.30
2018-09-17T09:08:49.515Z,6.70
2018-09-17T09:11:26.998Z,6.47
2018-09-17T09:13:56.411Z,6.80
2018-09-17T09:16:25.606Z,6.70
2018-09-17T09:18:54.057Z,7.13
2018-09-17T09:21:22.412Z,6.93
2018-09-17T09:23:50.785Z,7.10
2018-09-17T09:26:19.399Z,7.47
2018-09-17T09:28:47.707Z,7.93
2018-09-17T09:31:16.125Z,7.80
2018-09-17T09:33:44.694Z,7.17
2018-09-17T09:36:13.187Z,7.23
2018-09-17T09:38:41.506Z,7.10
2018-09-17T09:41:09.989Z,6.83
2018-09-17T09:43:38.434Z,7.00
2018-09-17T09:46:06.995Z,6.80
2018-09-17T09:48:35.402Z,7.77
2018-09-17T09:51:03.985Z,7.27
2018-09-17T09:53:32.439Z,6.40
2018-09-17T09:56:00.918Z,6.33
2018-09-17T09:58:29.269Z,7.90
2018-09-17T10:01:03.043Z,6.03
2018-09-17T10:03:36.618Z,5.90
2018-09-17T10:06:05.132Z,14.87
2018-09-17T10:08:37.729Z,6.73
2018-09-17T10:11:11.613Z,8.23
2018-09-17T10:13:45.295Z,7.33
2018-09-17T10:16:18.148Z,6.60
2018-09-17T10:18:51.903Z,6.63
2018-09-17T10:21:20.305Z,6.37
2018-09-17T10:23:48.748Z,5.90
2018-09-17T10:26:17.107Z,6.20
2018-09-17T10:28:45.525Z,6.50
2018-09-17T10:31:14.340Z,6.83
2018-09-17T10:33:42.663Z,9.30
2018-09-17T10:36:11.323Z,9.63
2018-09-17T10:38:39.638Z,6.77
2018-09-17T10:41:07.996Z,6.80
2018-09-17T10:43:36.579Z,6.37
2018-09-17T10:46:04.979Z,6.17
2018-09-17T10:48:33.321Z,6.53
2018-09-17T10:51:01.915Z,6.50
2018-09-17T10:53:30.245Z,14.57
2018-09-17T10:55:58.671Z,12.10
2018-09-17T10:58:27.103Z,5.70
2018-09-17T11:00:55.455Z,5.00
2018-09-17T11:03:23.892Z,6.20
2018-09-17T11:05:52.379Z,7.10
2018-09-17T11:08:21.042Z,7.43
2018-09-17T11:10:49.337Z,5.77
2018-09-17T11:13:17.779Z,5.87
2018-09-17T11:15:48.288Z,5.53
2018-09-17T11:18:17.836Z,5.00
2018-09-17T11:20:47.133Z,5.60
2018-09-17T11:23:15.485Z,5.20
2018-09-17T11:25:44.088Z,5.47
2018-09-17T11:28:12.467Z,5.60
2018-09-17T11:30:40.883Z,7.10
2018-09-17T11:33:09.218Z,8.10
2018-09-17T11:35:37.665Z,5.40
2018-09-17T11:38:06.019Z,5.43
2018-09-17T11:40:34.379Z,5.93
2018-09-17T11:43:02.855Z,6.03
2018-09-17T11:45:31.213Z,5.97
2018-09-17T11:47:59.634Z,5.27
2018-09-17T11:50:28.195Z,4.53
2018-09-17T11:52:56.547Z,5.70
2018-09-17T11:55:24.983Z,5.30
2018-09-17T11:57:53.514Z,9.20
2018-09-17T12:00:27.216Z,7.27
2018-09-17T12:03:00.844Z,5.43
2018-09-17T12:05:34.531Z,6.83
2018-09-17T12:08:07.072Z,5.37
2018-09-17T12:10:35.504Z,6.00
2018-09-17T12:13:03.911Z,6.97
2018-09-17T12:15:32.312Z,6.23
2018-09-17T12:18:00.750Z,6.83
2018-09-17T12:20:29.084Z,5.93
2018-09-17T12:22:57.782Z,5.70
2018-09-17T12:25:26.219Z,6.80
2018-09-17T12:27:54.570Z,5.20
2018-09-17T12:30:22.936Z,5.90
2018-09-17T12:32:51.263Z,5.00
2018-09-17T12:35:19.774Z,5.80
2018-09-17T12:37:48.175Z,6.03
2018-09-17T12:40:16.580Z,5.60
2018-09-17T12:42:44.908Z,5.30
2018-09-17T12:45:13.536Z,5.40
2018-09-17T12:47:41.913Z,5.00
2018-09-17T12:50:10.310Z,6.37
2018-09-17T12:52:38.864Z,5.73
2018-09-17T12:55:07.283Z,5.67
2018-09-17T12:57:35.736Z,5.30
2018-09-17T13:00:04.499Z,4.57
2018-09-17T13:02:32.807Z,5.23
2018-09-17T13:05:01.191Z,4.80
2018-09-17T13:07:29.577Z,5.27
2018-09-17T13:09:57.915Z,5.00
2018-09-17T13:12:26.412Z,4.67
2018-09-17T13:14:55.326Z,4.43
2018-09-17T13:17:23.535Z,4.67
2018-09-17T13:19:51.885Z,4.30
2018-09-17T13:22:20.273Z,4.60
2018-09-17T13:24:48.712Z,4.83
2018-09-17T13:27:17.755Z,4.93
2018-09-17T13:29:46.267Z,4.60
2018-09-17T13:32:14.749Z,4.63
2018-09-17T13:34:43.087Z,4.47
2018-09-17T13:37:11.872Z,4.70
2018-09-17T13:39:40.602Z,7.37
2018-09-17T13:42:08.921Z,4.87
2018-09-17T13:44:37.569Z,4.33
2018-09-17T13:47:05.959Z,4.63
2018-09-17T13:49:34.415Z,4.60
2018-09-17T13:52:03.029Z,4.40
2018-09-17T13:54:31.987Z,4.20
2018-09-17T13:57:00.327Z,4.90
2018-09-17T13:59:28.842Z,4.37
2018-09-17T14:01:57.179Z,4.20
2018-09-17T14:04:25.651Z,4.27
2018-09-17T14:06:53.942Z,4.00
2018-09-17T14:09:22.359Z,4.20
2018-09-17T14:11:50.727Z,4.13
2018-09-17T14:14:19.290Z,4.77
2018-09-17T14:16:48.703Z,4.17
2018-09-17T14:19:17.199Z,8.57
2018-09-17T14:21:45.730Z,5.30
2018-09-17T14:24:14.119Z,4.07
2018-09-17T14:26:42.475Z,4.97
2018-09-17T14:29:11.247Z,4.20
2018-09-17T14:31:51.615Z,4.50
2018-09-17T14:34:20.141Z,5.27
2018-09-17T14:36:48.465Z,7.93
2018-09-17T14:39:16.841Z,11.37
2018-09-17T14:41:45.516Z,5.80
2018-09-17T14:44:13.957Z,4.53
2018-09-17T14:46:42.365Z,4.73
2018-09-17T14:49:10.757Z,4.20
2018-09-17T14:51:39.299Z,4.60
2018-09-17T14:54:07.627Z,4.90
2018-09-17T14:56:35.997Z,4.80
2018-09-17T14:59:04.349Z,4.70
2018-09-17T15:01:32.732Z,5.57
2018-09-17T15:04:01.115Z,5.90
2018-09-17T15:06:29.412Z,4.87
2018-09-17T15:08:57.739Z,6.57
2018-09-17T15:11:26.334Z,5.23
2018-09-17T15:13:54.840Z,5.80
2018-09-17T15:16:23.280Z,5.50
2018-09-17T15:18:51.585Z,5.73
2018-09-17T15:21:19.915Z,5.47
2018-09-17T15:23:49.201Z,5.57
2018-09-17T15:26:17.520Z,5.80
2018-09-17T15:28:45.850Z,5.63
2018-09-17T15:31:14.286Z,5.60
2018-09-17T15:33:42.653Z,5.87
2018-09-17T15:36:11.115Z,5.23
2018-09-17T15:38:40.420Z,6.13
2018-09-17T15:41:08.935Z,6.20
2018-09-17T15:43:37.266Z,5.67
2018-09-17T15:46:05.649Z,5.30
2018-09-17T15:48:33.975Z,6.17
2018-09-17T15:51:02.815Z,5.67
2018-09-17T15:53:31.459Z,4.60
2018-09-17T15:56:00.173Z,5.23
2018-09-17T15:58:28.491Z,5.70
2018-09-17T16:00:56.837Z,5.30
2018-09-17T16:03:25.245Z,5.20
2018-09-17T16:05:53.680Z,4.77
2018-09-17T16:08:22.042Z,5.23
2018-09-17T16:10:50.467Z,5.00
2018-09-17T16:13:18.876Z,5.00
2018-09-17T16:15:48.432Z,5.57
2018-09-17T16:18:17.892Z,5.10
2018-09-17T16:20:46.333Z,4.83
2018-09-17T16:23:14.689Z,4.80
2018-09-17T16:25:44.426Z,4.80
2018-09-17T16:28:12.872Z,5.27
2018-09-17T16:30:41.274Z,5.20
2018-09-17T16:33:09.725Z,5.33
2018-09-17T16:35:38.123Z,5.20
2018-09-17T16:38:06.503Z,5.07
2018-09-17T16:40:35.071Z,5.07
2018-09-17T16:43:03.411Z,5.10
2018-09-17T16:45:31.765Z,5.30
2018-09-17T16:48:00.186Z,5.47
2018-09-17T16:50:28.517Z,5.53
2018-09-17T16:52:57.015Z,5.70
2018-09-17T16:55:25.475Z,5.97
2018-09-17T16:57:53.995Z,5.37
2018-09-17T17:00:22.335Z,6.17
2018-09-17T17:02:51.089Z,6.00
2018-09-17T17:05:19.580Z,8.43
2018-09-17T17:07:47.967Z,10.40
2018-09-17T17:10:16.423Z,8.47
2018-09-17T17:12:44.739Z,5.93
2018-09-17T17:15:13.073Z,8.83
2018-09-17T17:17:41.681Z,6.33
2018-09-17T17:20:10.107Z,10.20
2018-09-17T17:22:38.480Z,7.17
2018-09-17T17:25:06.986Z,7.00
2018-09-17T17:27:35.340Z,9.93
2018-09-17T17:30:03.760Z,7.37
2018-09-17T17:32:32.198Z,8.90
2018-09-17T17:35:00.645Z,8.73
2018-09-17T17:37:29.026Z,11.27
2018-09-17T17:39:57.571Z,6.93
2018-09-17T17:42:25.918Z,6.30
2018-09-17T17:44:54.822Z,6.63
2018-09-17T17:47:23.266Z,6.57
2018-09-17T17:49:51.772Z,8.53
2018-09-17T17:52:20.345Z,9.40
2018-09-17T17:54:48.741Z,7.90
2018-09-17T17:57:17.191Z,7.13
2018-09-17T17:59:45.657Z,6.30
2018-09-17T18:02:14.278Z,6.20
2018-09-17T18:04:42.770Z,6.77
2018-09-17T18:07:11.218Z,7.00
2018-09-17T18:09:39.627Z,5.90
2018-09-17T18:12:07.988Z,6.43
2018-09-17T18:14:36.338Z,6.30
2018-09-17T18:17:04.814Z,6.20
2018-09-17T18:19:33.210Z,6.23
2018-09-17T18:22:01.544Z,7.00
2018-09-17T18:24:30.844Z,6.90
2018-09-17T18:26:59.322Z,7.17
2018-09-17T18:29:27.876Z,7.27
2018-09-17T18:31:56.458Z,7.33
2018-09-17T18:34:24.924Z,7.23
2018-09-17T18:36:53.433Z,6.90
2018-09-17T18:39:22.013Z,7.33
2018-09-17T18:41:50.324Z,7.27
2018-09-17T18:44:18.721Z,6.43
2018-09-17T18:46:47.140Z,7.40
2018-09-17T18:49:15.577Z,7.37
2018-09-17T18:51:44.114Z,7.60
2018-09-17T18:54:12.541Z,7.07
2018-09-17T18:56:41.006Z,7.20
2018-09-17T18:59:09.360Z,7.40
2018-09-17T19:01:37.848Z,7.53
2018-09-17T19:04:06.377Z,7.97
2018-09-17T19:06:34.752Z,8.03
2018-09-17T19:09:03.204Z,7.63
2018-09-17T19:11:31.629Z,8.50
2018-09-17T19:14:05.488Z,8.47
2018-09-17T19:16:39.966Z,7.20
2018-09-17T19:19:08.518Z,7.13
2018-09-17T19:21:42.429Z,7.57
2018-09-17T19:24:10.894Z,7.77
2018-09-17T19:26:39.328Z,7.00
2018-09-17T19:29:13.099Z,7.10
2018-09-17T19:31:41.458Z,7.77
2018-09-17T19:34:09.889Z,7.37
2018-09-17T19:36:38.279Z,7.37
2018-09-17T19:39:12.660Z,7.50
2018-09-17T19:41:41.900Z,7.23
2018-09-17T19:44:10.272Z,6.73
2018-09-17T19:46:38.748Z,7.60
2018-09-17T19:49:07.209Z,7.70
2018-09-17T19:51:41.034Z,7.57
2018-09-17T19:54:09.605Z,7.17
2018-09-17T19:56:38.168Z,8.63
2018-09-17T19:59:11.802Z,8.30
2018-09-17T20:01:40.234Z,8.03
2018-09-17T20:04:13.900Z,7.60
2018-09-17T20:06:42.310Z,7.77
2018-09-17T20:09:11.540Z,7.47
2018-09-17T20:11:40.353Z,7.63
2018-09-17T20:14:08.920Z,7.40
2018-09-17T20:16:37.296Z,7.50
2018-09-17T20:19:05.732Z,7.90
2018-09-17T20:21:34.108Z,7.50
2018-09-17T20:24:02.484Z,7.57
2018-09-17T20:26:30.856Z,7.20
2018-09-17T20:28:59.260Z,8.13
2018-09-17T20:31:27.677Z,8.03
2018-09-17T20:33:56.203Z,8.07
2018-09-17T20:36:24.571Z,8.07
2018-09-17T20:38:53.065Z,7.87
2018-09-17T20:41:21.487Z,7.20
2018-09-17T20:43:49.915Z,8.50
2018-09-17T20:46:18.269Z,8.30
2018-09-17T20:48:46.886Z,7.90
2018-09-17T20:51:15.179Z,7.37
2018-09-17T20:53:43.600Z,7.73
2018-09-17T20:56:12.166Z,8.23
2018-09-17T20:58:40.501Z,7.60
2018-09-17T21:01:09.359Z,7.60
2018-09-17T21:03:37.644Z,7.37
2018-09-17T21:06:06.117Z,7.27
2018-09-17T21:08:34.519Z,7.43
2018-09-17T21:11:03.241Z,7.40
2018-09-17T21:13:31.777Z,7.10
2018-09-17T21:16:00.095Z,6.83
2018-09-17T21:18:28.643Z,7.27
2018-09-17T21:20:57.037Z,7.60
2018-09-17T21:23:25.385Z,7.60
2018-09-17T21:25:53.895Z,7.50
2018-09-17T21:28:22.279Z,7.47
2018-09-17T21:30:50.773Z,7.87
2018-09-17T21:33:19.172Z,7.13
2018-09-17T21:35:47.603Z,8.13
2018-09-17T21:38:16.001Z,7.47
2018-09-17T21:40:44.486Z,7.73
2018-09-17T21:43:12.919Z,7.60
2018-09-17T21:45:41.165Z,7.53
2018-09-17T21:48:09.635Z,8.23
2018-09-17T21:50:37.956Z,7.23
2018-09-17T21:53:06.435Z,7.30
2018-09-17T21:55:35.039Z,8.30
2018-09-17T21:58:03.359Z,7.93
2018-09-17T22:01:03.634Z,7.73
2018-09-17T22:03:33.504Z,8.03
2018-09-17T22:06:01.864Z,7.70
2018-09-17T22:08:30.828Z,7.63
2018-09-17T22:10:59.244Z,7.63
2018-09-17T22:13:28.104Z,7.70
2018-09-17T22:15:56.517Z,7.53
2018-09-17T22:18:24.964Z,6.57
2018-09-17T22:20:53.338Z,7.10
2018-09-17T22:23:21.827Z,7.63
2018-09-17T22:25:50.160Z,8.10
2018-09-17T22:28:18.488Z,8.03
2018-09-17T22:30:46.918Z,7.87
2018-09-17T22:33:15.248Z,7.70
2018-09-17T22:35:43.640Z,7.53
2018-09-17T22:38:12.040Z,7.37
2018-09-17T22:40:41.232Z,7.93
2018-09-17T22:43:09.560Z,7.43
2018-09-17T22:45:37.988Z,7.47
2018-09-17T22:48:06.440Z,7.30
2018-09-17T22:50:34.803Z,7.30
2018-09-17T22:53:03.372Z,7.97
2018-09-17T22:55:31.711Z,7.47
2018-09-17T22:58:00.052Z,7.30
2018-09-17T23:00:28.448Z,7.60
2018-09-17T23:02:56.801Z,6.90
2018-09-17T23:05:25.176Z,7.30
2018-09-17T23:07:53.659Z,7.00
2018-09-17T23:10:21.994Z,7.60
2018-09-17T23:12:50.403Z,7.53
2018-09-17T23:15:18.894Z,8.57
2018-09-17T23:17:47.275Z,7.57
2018-09-17T23:20:15.688Z,8.00
2018-09-17T23:22:44.100Z,7.77
2018-09-17T23:25:12.444Z,6.97
2018-09-17T23:27:40.791Z,7.20
2018-09-17T23:30:09.178Z,7.17
2018-09-17T23:32:37.584Z,8.20
2018-09-17T23:35:06.020Z,8.17
2018-09-17T23:37:34.446Z,7.60
2018-09-17T23:40:02.853Z,8.10
2018-09-17T23:42:31.163Z,7.37
2018-09-17T23:44:59.582Z,7.47
2018-09-17T23:47:28.102Z,9.07
2018-09-17T23:49:56.496Z,8.20
2018-09-17T23:52:24.912Z,7.40
2018-09-17T23:54:53.460Z,8.00
2018-09-17T23:57:21.781Z,8.20
2018-09-17T23:59:50.161Z,7.93
